»·PEaware :: N503AM KWHP-KSBD

N503AM :: KWHP-KSBD

FLIGHT INFORMATION

Flight Status: Arrived
Operator: Privately registered:
United States
More flights under this callsign
Pilot: Gary H. (18965)
Aircraft: CESSNA 172 SKYHAWK
(C172)
More flights by this aircraft type
Origin: KWHP Whiteman
United States
Destination: KSBD San Bernardino Intl
United States
More flights between these airports :: More routes between these airports
Route: +WHP1 VNY V186 PDZ+
File this flight plan on PilotEdge
Remarks:
Altitude:
(Current/Filed)
5,000ft
Speed:
(Current/Filed)
110kts
Departed: 15-Dec-20 06:55 PM
Arrived: 15-Dec-20 07:39 PM
Distance/Time
Traveled:
60nm/0:43
Distance/Time
To Go:
Arrived

Flight Plot

Page will automatically refresh every two minutes.

Flight plan parsing failed; only flown route is shown


Map Options




Map Legend


Flown Route
Filed Route
Departure Airport
Arrival Airport
Navaid (VOR, NDB)
Fix

Horizontal Profiles

Position Reports

Time Latitude Longitude Heading Altitude Ground
Speed
15-Dec-20 18:39 34.260370 -118.413372 319 997ft 0kts
15-Dec-20 18:40 34.260370 -118.413372 319 997ft 0kts
15-Dec-20 18:41 34.260370 -118.413372 319 997ft 0kts
15-Dec-20 18:42 34.260370 -118.413372 319 997ft 0kts
15-Dec-20 18:42 34.260370 -118.413372 319 997ft 0kts
15-Dec-20 18:43 34.260370 -118.413372 319 997ft 0kts
15-Dec-20 18:45 34.260370 -118.413372 319 997ft 0kts
15-Dec-20 18:46 34.260370 -118.413372 319 997ft 0kts
15-Dec-20 18:46 34.260370 -118.413372 319 997ft 0kts
15-Dec-20 18:47 34.260370 -118.413372 319 997ft 0kts
15-Dec-20 18:48 34.260370 -118.413372 319 997ft 0kts
15-Dec-20 18:49 34.260370 -118.413372 319 997ft 0kts
15-Dec-20 18:50 34.259919 -118.413087 172 994ft 0kts
15-Dec-20 18:51 34.258106 -118.411535 138 984ft 19kts
15-Dec-20 18:52 34.255574 -118.408888 169 970ft 0kts
15-Dec-20 18:53 34.255574 -118.408888 169 970ft 0kts
15-Dec-20 18:54 34.262862 -118.417771 322 1250ft 79kts
15-Dec-20 18:55 34.264535 -118.447441 268 2074ft 101kts
15-Dec-20 18:56 34.261017 -118.480669 272 2963ft 98kts
15-Dec-20 18:57 34.257505 -118.512890 293 3858ft 88kts
15-Dec-20 18:58 34.270951 -118.532555 293 4752ft 83kts
15-Dec-20 18:59 34.247832 -118.540877 127 4939ft 127kts
15-Dec-20 19:00 34.231470 -118.506213 109 4931ft 114kts
15-Dec-20 19:01 34.219167 -118.471502 103 4931ft 109kts
15-Dec-20 19:02 34.208825 -118.436989 105 4936ft 108kts
15-Dec-20 19:03 34.198353 -118.402843 105 4940ft 108kts
15-Dec-20 19:04 34.188404 -118.368553 106 4943ft 108kts
15-Dec-20 19:05 34.178078 -118.334297 107 4945ft 108kts
15-Dec-20 19:06 34.168040 -118.299742 111 4945ft 110kts
15-Dec-20 19:07 34.155399 -118.265853 114 4946ft 110kts
15-Dec-20 19:08 34.143556 -118.231544 110 4941ft 110kts
15-Dec-20 19:09 34.132779 -118.196701 110 4939ft 110kts
15-Dec-20 19:10 34.122977 -118.164988 110 4937ft 110kts
15-Dec-20 19:11 34.112242 -118.130233 110 4935ft 110kts
15-Dec-20 19:12 34.101480 -118.095368 110 4946ft 109kts
15-Dec-20 19:13 34.090835 -118.060928 110 4977ft 108kts
15-Dec-20 19:14 34.080076 -118.026404 110 4976ft 110kts
15-Dec-20 19:15 34.069225 -117.991838 110 4975ft 110kts
15-Dec-20 19:16 34.058298 -117.957257 110 4974ft 110kts
15-Dec-20 19:17 34.051060 -117.921688 91 4962ft 109kts
15-Dec-20 19:18 34.050002 -117.885934 90 5013ft 107kts
15-Dec-20 19:19 34.048880 -117.849600 90 5014ft 108kts
15-Dec-20 19:20 34.047660 -117.813290 90 5014ft 108kts
15-Dec-20 19:21 34.046216 -117.777096 90 5014ft 108kts
15-Dec-20 19:22 34.044557 -117.740823 90 5015ft 108kts
15-Dec-20 19:23 34.042667 -117.704809 91 4945ft 105kts
15-Dec-20 19:24 34.040683 -117.669916 90 4440ft 103kts
15-Dec-20 19:25 34.038373 -117.635621 90 4002ft 100kts
15-Dec-20 19:26 34.035785 -117.603470 90 3999ft 93kts
15-Dec-20 19:27 34.033181 -117.572176 90 4007ft 97kts
15-Dec-20 19:28 34.030826 -117.538617 90 4012ft 100kts
15-Dec-20 19:29 34.029009 -117.505008 90 4014ft 100kts
15-Dec-20 19:30 34.027369 -117.471314 89 4015ft 100kts
15-Dec-20 19:31 34.031915 -117.438465 69 4024ft 98kts
15-Dec-20 19:32 34.041619 -117.407628 66 4001ft 97kts
15-Dec-20 19:33 34.052917 -117.377179 68 3439ft 103kts
15-Dec-20 19:34 34.062411 -117.346852 70 2851ft 90kts
15-Dec-20 19:35 34.069971 -117.318476 70 2291ft 87kts
15-Dec-20 19:36 34.078535 -117.291681 73 1847ft 84kts
15-Dec-20 19:37 34.086536 -117.264769 71 1397ft 85kts
15-Dec-20 19:38 34.092574 -117.243992 71 1095ft 37kts
15-Dec-20 19:39 34.095142 -117.241655 76 1100ft 15kts
15-Dec-20 19:40 34.097373 -117.234146 70 1121ft 30kts
15-Dec-20 19:41 34.100705 -117.227058 76 1139ft 13kts

Navigation Log

Ident Type
Flight plan parsing failed, navigation log unavailable